sensor_id;sensor_type;location;lat;lon;timestamp;temperature;humidity
70839;DHT22;58464;52.298;4.852;2022-09-09T00:00:15;16.49;82.47
70839;DHT22;58464;52.298;4.852;2022-09-09T00:02:49;16.45;82.52
70839;DHT22;58464;52.298;4.852;2022-09-09T00:05:27;16.44;82.76
70839;DHT22;58464;52.298;4.852;2022-09-09T00:07:58;16.44;82.84
70839;DHT22;58464;52.298;4.852;2022-09-09T00:10:36;16.38;83.02
70839;DHT22;58464;52.298;4.852;2022-09-09T00:21:27;16.21;83.96
70839;DHT22;58464;52.298;4.852;2022-09-09T00:23:57;16.24;84.04
70839;DHT22;58464;52.298;4.852;2022-09-09T00:31:39;16.17;84.30
70839;DHT22;58464;52.298;4.852;2022-09-09T00:34:21;16.11;84.68
70839;DHT22;58464;52.298;4.852;2022-09-09T00:36:49;16.06;84.74
70839;DHT22;58464;52.298;4.852;2022-09-09T00:39:30;16.04;85.04
70839;DHT22;58464;52.298;4.852;2022-09-09T00:42:23;15.98;85.21
70839;DHT22;58464;52.298;4.852;2022-09-09T00:44:56;15.97;85.32
70839;DHT22;58464;52.298;4.852;2022-09-09T00:50:29;16.01;85.25
70839;DHT22;58464;52.298;4.852;2022-09-09T00:53:02;15.98;85.20
70839;DHT22;58464;52.298;4.852;2022-09-09T00:55:41;16.00;85.40
70839;DHT22;58464;52.298;4.852;2022-09-09T00:58:10;16.03;85.09
70839;DHT22;58464;52.298;4.852;2022-09-09T01:00:42;16.00;85.25
70839;DHT22;58464;52.298;4.852;2022-09-09T01:03:34;15.97;85.63
70839;DHT22;58464;52.298;4.852;2022-09-09T01:06:22;15.96;85.58
70839;DHT22;58464;52.298;4.852;2022-09-09T01:14:40;15.83;86.18
70839;DHT22;58464;52.298;4.852;2022-09-09T01:26:34;15.63;86.77
70839;DHT22;58464;52.298;4.852;2022-09-09T01:29:00;15.62;86.95
70839;DHT22;58464;52.298;4.852;2022-09-09T01:31:40;15.65;87.38
70839;DHT22;58464;52.298;4.852;2022-09-09T01:34:11;15.65;86.83
70839;DHT22;58464;52.298;4.852;2022-09-09T01:39:09;15.62;86.95
70839;DHT22;58464;52.298;4.852;2022-09-09T01:41:35;15.62;87.12
70839;DHT22;58464;52.298;4.852;2022-09-09T01:44:01;15.48;87.29
70839;DHT22;58464;52.298;4.852;2022-09-09T01:46:27;15.45;87.66
70839;DHT22;58464;52.298;4.852;2022-09-09T01:48:54;15.46;87.66
70839;DHT22;58464;52.298;4.852;2022-09-09T01:51:20;15.48;87.74
70839;DHT22;58464;52.298;4.852;2022-09-09T01:53:46;15.45;87.35
70839;DHT22;58464;52.298;4.852;2022-09-09T01:56:26;15.46;87.38
70839;DHT22;58464;52.298;4.852;2022-09-09T01:59:31;15.45;87.61
70839;DHT22;58464;52.298;4.852;2022-09-09T02:02:02;15.46;87.82
70839;DHT22;58464;52.298;4.852;2022-09-09T02:04:42;15.46;87.57
70839;DHT22;58464;52.298;4.852;2022-09-09T02:07:39;15.35;87.66
70839;DHT22;58464;52.298;4.852;2022-09-09T02:10:17;15.35;87.96
70839;DHT22;58464;52.298;4.852;2022-09-09T02:12:47;15.27;88.01
70839;DHT22;58464;52.298;4.852;2022-09-09T02:15:26;15.27;87.98
70839;DHT22;58464;52.298;4.852;2022-09-09T02:17:57;15.18;88.37
70839;DHT22;58464;52.298;4.852;2022-09-09T02:20:23;15.22;88.06
70839;DHT22;58464;52.298;4.852;2022-09-09T02:22:53;15.21;88.26
70839;DHT22;58464;52.298;4.852;2022-09-09T02:25:22;15.25;88.32
70839;DHT22;58464;52.298;4.852;2022-09-09T02:27:50;15.19;88.03
70839;DHT22;58464;52.298;4.852;2022-09-09T02:30:16;15.19;88.00
70839;DHT22;58464;52.298;4.852;2022-09-09T02:32:42;15.19;87.97
70839;DHT22;58464;52.298;4.852;2022-09-09T02:35:11;15.19;88.03
70839;DHT22;58464;52.298;4.852;2022-09-09T02:37:40;15.24;88.06
70839;DHT22;58464;52.298;4.852;2022-09-09T02:40:09;15.24;87.95
70839;DHT22;58464;52.298;4.852;2022-09-09T02:42:54;15.19;87.78
70839;DHT22;58464;52.298;4.852;2022-09-09T02:45:23;15.17;88.12
70839;DHT22;58464;52.298;4.852;2022-09-09T02:48:02;15.18;87.99
70839;DHT22;58464;52.298;4.852;2022-09-09T02:50:41;15.12;88.02
70839;DHT22;58464;52.298;4.852;2022-09-09T02:53:10;15.11;88.34
70839;DHT22;58464;52.298;4.852;2022-09-09T02:56:23;15.05;88.30
70839;DHT22;58464;52.298;4.852;2022-09-09T02:58:49;15.04;88.30
70839;DHT22;58464;52.298;4.852;2022-09-09T03:01:17;15.05;88.31
70839;DHT22;58464;52.298;4.852;2022-09-09T03:03:42;14.98;88.09
70839;DHT22;58464;52.298;4.852;2022-09-09T03:06:09;15.05;88.09
70839;DHT22;58464;52.298;4.852;2022-09-09T03:08:37;15.01;88.29
70839;DHT22;58464;52.298;4.852;2022-09-09T03:11:02;14.98;88.28
70839;DHT22;58464;52.298;4.852;2022-09-09T03:13:28;15.01;88.51
70839;DHT22;58464;52.298;4.852;2022-09-09T03:15:55;14.95;88.57
70839;DHT22;58464;52.298;4.852;2022-09-09T03:18:20;14.94;88.78
70839;DHT22;58464;52.298;4.852;2022-09-09T03:20:46;14.88;89.00
70839;DHT22;58464;52.298;4.852;2022-09-09T03:23:13;14.81;89.02
70839;DHT22;58464;52.298;4.852;2022-09-09T03:25:39;14.87;89.14
70839;DHT22;58464;52.298;4.852;2022-09-09T03:28:04;14.78;89.24
70839;DHT22;58464;52.298;4.852;2022-09-09T03:30:30;14.80;89.33
70839;DHT22;58464;52.298;4.852;2022-09-09T03:32:56;14.80;89.39
70839;DHT22;58464;52.298;4.852;2022-09-09T03:35:22;14.80;89.39
70839;DHT22;58464;52.298;4.852;2022-09-09T03:37:47;14.83;89.36
70839;DHT22;58464;52.298;4.852;2022-09-09T03:40:13;14.84;89.45
70839;DHT22;58464;52.298;4.852;2022-09-09T03:42:39;14.80;89.27
70839;DHT22;58464;52.298;4.852;2022-09-09T03:45:06;14.85;89.36
70839;DHT22;58464;52.298;4.852;2022-09-09T03:47:33;14.90;89.22
70839;DHT22;58464;52.298;4.852;2022-09-09T03:49:58;14.95;88.71
70839;DHT22;58464;52.298;4.852;2022-09-09T03:52:24;14.91;88.91
70839;DHT22;58464;52.298;4.852;2022-09-09T03:54:51;14.99;88.81
70839;DHT22;58464;52.298;4.852;2022-09-09T03:57:19;14.97;88.82
70839;DHT22;58464;52.298;4.852;2022-09-09T03:59:45;15.01;88.65
70839;DHT22;58464;52.298;4.852;2022-09-09T04:02:10;14.94;88.74
70839;DHT22;58464;52.298;4.852;2022-09-09T04:04:36;14.91;88.96
70839;DHT22;58464;52.298;4.852;2022-09-09T04:07:02;14.87;89.23
70839;DHT22;58464;52.298;4.852;2022-09-09T04:09:27;14.88;89.00
70839;DHT22;58464;52.298;4.852;2022-09-09T04:11:53;14.88;89.09
70839;DHT22;58464;52.298;4.852;2022-09-09T04:14:20;14.85;89.03
70839;DHT22;58464;52.298;4.852;2022-09-09T04:16:45;14.90;89.14
70839;DHT22;58464;52.298;4.852;2022-09-09T04:19:12;14.88;88.90
70839;DHT22;58464;52.298;4.852;2022-09-09T04:21:39;14.85;89.04
70839;DHT22;58464;52.298;4.852;2022-09-09T04:24:06;14.81;88.96
70839;DHT22;58464;52.298;4.852;2022-09-09T04:26:32;14.80;89.17
70839;DHT22;58464;52.298;4.852;2022-09-09T04:28:57;14.84;89.06
70839;DHT22;58464;52.298;4.852;2022-09-09T04:31:23;14.78;88.98
70839;DHT22;58464;52.298;4.852;2022-09-09T04:33:50;14.85;88.81
70839;DHT22;58464;52.298;4.852;2022-09-09T04:36:15;14.87;88.61
70839;DHT22;58464;52.298;4.852;2022-09-09T04:38:41;14.88;88.53
70839;DHT22;58464;52.298;4.852;2022-09-09T04:41:07;14.83;88.36
70839;DHT22;58464;52.298;4.852;2022-09-09T04:43:33;14.83;88.29
70839;DHT22;58464;52.298;4.852;2022-09-09T04:45:59;14.83;88.28
70839;DHT22;58464;52.298;4.852;2022-09-09T04:48:25;14.88;88.03
70839;DHT22;58464;52.298;4.852;2022-09-09T04:50:57;14.92;88.13
70839;DHT22;58464;52.298;4.852;2022-09-09T04:53:23;14.97;87.46
70839;DHT22;58464;52.298;4.852;2022-09-09T04:55:50;14.92;87.77
70839;DHT22;58464;52.298;4.852;2022-09-09T04:58:15;14.92;87.78
70839;DHT22;58464;52.298;4.852;2022-09-09T05:00:41;14.94;88.01
70839;DHT22;58464;52.298;4.852;2022-09-09T05:03:07;14.90;87.75
70839;DHT22;58464;52.298;4.852;2022-09-09T05:05:34;14.85;87.77
70839;DHT22;58464;52.298;4.852;2022-09-09T05:08:07;14.91;87.83
70839;DHT22;58464;52.298;4.852;2022-09-09T05:10:37;14.90;87.60
70839;DHT22;58464;52.298;4.852;2022-09-09T05:13:03;14.90;87.64
70839;DHT22;58464;52.298;4.852;2022-09-09T05:15:29;14.92;87.60
70839;DHT22;58464;52.298;4.852;2022-09-09T05:17:59;14.88;87.70
70839;DHT22;58464;52.298;4.852;2022-09-09T05:20:26;14.87;87.48
70839;DHT22;58464;52.298;4.852;2022-09-09T05:22:55;15.05;87.20
70839;DHT22;58464;52.298;4.852;2022-09-09T05:25:22;15.07;87.12
70839;DHT22;58464;52.298;4.852;2022-09-09T05:27:51;15.01;87.04
70839;DHT22;58464;52.298;4.852;2022-09-09T05:30:16;15.02;87.24
70839;DHT22;58464;52.298;4.852;2022-09-09T05:32:44;15.04;87.23
70839;DHT22;58464;52.298;4.852;2022-09-09T05:35:09;15.01;87.22
70839;DHT22;58464;52.298;4.852;2022-09-09T05:37:35;15.05;87.24
70839;DHT22;58464;52.298;4.852;2022-09-09T05:40:00;15.14;86.96
70839;DHT22;58464;52.298;4.852;2022-09-09T05:42:29;15.19;86.69
70839;DHT22;58464;52.298;4.852;2022-09-09T05:44:55;15.22;86.43
70839;DHT22;58464;52.298;4.852;2022-09-09T05:47:21;15.27;86.55
70839;DHT22;58464;52.298;4.852;2022-09-09T05:49:46;15.28;86.68
70839;DHT22;58464;52.298;4.852;2022-09-09T05:52:13;15.29;86.44
70839;DHT22;58464;52.298;4.852;2022-09-09T05:54:42;15.38;86.16
70839;DHT22;58464;52.298;4.852;2022-09-09T05:57:08;15.31;86.36
70839;DHT22;58464;52.298;4.852;2022-09-09T05:59:33;15.28;86.52
70839;DHT22;58464;52.298;4.852;2022-09-09T06:01:59;15.36;86.65
70839;DHT22;58464;52.298;4.852;2022-09-09T06:04:24;15.45;86.30
70839;DHT22;58464;52.298;4.852;2022-09-09T06:06:50;15.48;86.02
70839;DHT22;58464;52.298;4.852;2022-09-09T06:09:15;15.52;86.04
70839;DHT22;58464;52.298;4.852;2022-09-09T06:11:42;15.66;85.78
70839;DHT22;58464;52.298;4.852;2022-09-09T06:14:08;15.59;85.65
70839;DHT22;58464;52.298;4.852;2022-09-09T06:16:34;15.58;85.90
70839;DHT22;58464;52.298;4.852;2022-09-09T06:19:01;15.63;86.00
70839;DHT22;58464;52.298;4.852;2022-09-09T06:21:33;15.71;85.68
70839;DHT22;58464;52.298;4.852;2022-09-09T06:24:00;15.86;85.24
70839;DHT22;58464;52.298;4.852;2022-09-09T06:26:30;15.98;84.75
70839;DHT22;58464;52.298;4.852;2022-09-09T06:28:57;16.07;84.65
70839;DHT22;58464;52.298;4.852;2022-09-09T06:31:25;16.06;84.51
70839;DHT22;58464;52.298;4.852;2022-09-09T06:33:52;16.10;84.21
70839;DHT22;58464;52.298;4.852;2022-09-09T06:36:26;16.08;84.20
70839;DHT22;58464;52.298;4.852;2022-09-09T06:38:51;16.20;84.07
70839;DHT22;58464;52.298;4.852;2022-09-09T06:41:18;16.28;84.09
70839;DHT22;58464;52.298;4.852;2022-09-09T06:43:45;16.37;83.73
70839;DHT22;58464;52.298;4.852;2022-09-09T06:46:15;16.52;82.96
70839;DHT22;58464;52.298;4.852;2022-09-09T06:48:42;16.68;82.36
70839;DHT22;58464;52.298;4.852;2022-09-09T06:51:12;16.90;81.78
70839;DHT22;58464;52.298;4.852;2022-09-09T06:53:40;17.05;81.17
70839;DHT22;58464;52.298;4.852;2022-09-09T06:56:31;17.03;81.28
70839;DHT22;58464;52.298;4.852;2022-09-09T06:58:58;17.00;81.33
70839;DHT22;58464;52.298;4.852;2022-09-09T07:01:28;17.02;81.59
70839;DHT22;58464;52.298;4.852;2022-09-09T07:03:56;17.03;81.58
70839;DHT22;58464;52.298;4.852;2022-09-09T07:06:30;16.99;81.59
70839;DHT22;58464;52.298;4.852;2022-09-09T07:09:04;16.97;81.66
70839;DHT22;58464;52.298;4.852;2022-09-09T07:11:32;16.97;81.48
70839;DHT22;58464;52.298;4.852;2022-09-09T07:13:59;17.00;81.58
70839;DHT22;58464;52.298;4.852;2022-09-09T07:16:25;17.02;81.79
70839;DHT22;58464;52.298;4.852;2022-09-09T07:18:53;16.90;82.02
70839;DHT22;58464;52.298;4.852;2022-09-09T07:21:23;16.89;82.11
70839;DHT22;58464;52.298;4.852;2022-09-09T07:23:49;16.93;81.90
70839;DHT22;58464;52.298;4.852;2022-09-09T07:26:17;16.86;82.18
70839;DHT22;58464;52.298;4.852;2022-09-09T07:28:44;16.93;82.24
70839;DHT22;58464;52.298;4.852;2022-09-09T07:31:15;16.99;82.14
70839;DHT22;58464;52.298;4.852;2022-09-09T07:33:42;17.02;81.86
70839;DHT22;58464;52.298;4.852;2022-09-09T07:38:41;17.13;81.70
70839;DHT22;58464;52.298;4.852;2022-09-09T07:41:12;17.17;81.56
70839;DHT22;58464;52.298;4.852;2022-09-09T07:43:42;17.22;81.36
70839;DHT22;58464;52.298;4.852;2022-09-09T07:46:08;17.20;80.84
70839;DHT22;58464;52.298;4.852;2022-09-09T07:48:34;17.24;81.12
70839;DHT22;58464;52.298;4.852;2022-09-09T07:51:14;17.27;80.95
70839;DHT22;58464;52.298;4.852;2022-09-09T07:53:45;17.34;80.60
70839;DHT22;58464;52.298;4.852;2022-09-09T07:56:16;17.36;80.42
70839;DHT22;58464;52.298;4.852;2022-09-09T07:58:46;17.43;80.31
70839;DHT22;58464;52.298;4.852;2022-09-09T08:01:14;17.46;80.07
70839;DHT22;58464;52.298;4.852;2022-09-09T08:03:59;17.60;79.83
70839;DHT22;58464;52.298;4.852;2022-09-09T08:06:27;17.63;79.60
70839;DHT22;58464;52.298;4.852;2022-09-09T08:08:54;17.70;79.77
70839;DHT22;58464;52.298;4.852;2022-09-09T08:11:23;17.73;79.31
70839;DHT22;58464;52.298;4.852;2022-09-09T08:13:50;17.86;79.01
70839;DHT22;58464;52.298;4.852;2022-09-09T08:16:21;17.99;78.69
70839;DHT22;58464;52.298;4.852;2022-09-09T08:18:48;17.94;78.51
70839;DHT22;58464;52.298;4.852;2022-09-09T08:21:23;17.89;78.57
70839;DHT22;58464;52.298;4.852;2022-09-09T08:23:51;17.89;78.31
70839;DHT22;58464;52.298;4.852;2022-09-09T08:26:22;17.99;78.19
70839;DHT22;58464;52.298;4.852;2022-09-09T08:28:53;18.12;78.00
70839;DHT22;58464;52.298;4.852;2022-09-09T08:31:21;18.24;77.72
70839;DHT22;58464;52.298;4.852;2022-09-09T08:33:47;18.21;77.63
70839;DHT22;58464;52.298;4.852;2022-09-09T08:36:16;18.26;77.24
70839;DHT22;58464;52.298;4.852;2022-09-09T08:38:42;18.28;76.94
70839;DHT22;58464;52.298;4.852;2022-09-09T08:43:47;18.25;77.25
70839;DHT22;58464;52.298;4.852;2022-09-09T08:51:49;18.30;76.58
70839;DHT22;58464;52.298;4.852;2022-09-09T08:54:15;18.28;76.59
70839;DHT22;58464;52.298;4.852;2022-09-09T08:56:43;18.26;76.43
70839;DHT22;58464;52.298;4.852;2022-09-09T08:59:11;18.42;76.06
70839;DHT22;58464;52.298;4.852;2022-09-09T09:04:42;18.50;75.44
70839;DHT22;58464;52.298;4.852;2022-09-09T09:07:39;18.37;75.94
70839;DHT22;58464;52.298;4.852;2022-09-09T09:10:45;18.26;76.41
70839;DHT22;58464;52.298;4.852;2022-09-09T09:13:19;18.33;76.59
70839;DHT22;58464;52.298;4.852;2022-09-09T09:16:00;18.10;76.94
70839;DHT22;58464;52.298;4.852;2022-09-09T09:18:27;18.28;77.16
70839;DHT22;58464;52.298;4.852;2022-09-09T09:23:39;18.36;75.63
70839;DHT22;58464;52.298;4.852;2022-09-09T09:26:09;18.28;76.19
70839;DHT22;58464;52.298;4.852;2022-09-09T09:28:36;18.37;75.94
70839;DHT22;58464;52.298;4.852;2022-09-09T09:31:06;18.49;75.61
70839;DHT22;58464;52.298;4.852;2022-09-09T09:33:51;18.54;75.29
70839;DHT22;58464;52.298;4.852;2022-09-09T09:36:18;18.61;75.12
70839;DHT22;58464;52.298;4.852;2022-09-09T09:38:56;18.66;74.85
70839;DHT22;58464;52.298;4.852;2022-09-09T09:41:42;18.59;74.90
70839;DHT22;58464;52.298;4.852;2022-09-09T09:44:31;18.68;74.84
70839;DHT22;58464;52.298;4.852;2022-09-09T09:47:08;18.88;74.49
70839;DHT22;58464;52.298;4.852;2022-09-09T09:49:34;18.98;74.21
70839;DHT22;58464;52.298;4.852;2022-09-09T09:52:04;19.14;73.85
70839;DHT22;58464;52.298;4.852;2022-09-09T09:54:33;19.04;73.63
70839;DHT22;58464;52.298;4.852;2022-09-09T09:57:11;19.08;74.04
70839;DHT22;58464;52.298;4.852;2022-09-09T09:59:40;19.01;73.73
70839;DHT22;58464;52.298;4.852;2022-09-09T10:04:38;18.80;74.73
70839;DHT22;58464;52.298;4.852;2022-09-09T10:07:21;18.78;74.82
70839;DHT22;58464;52.298;4.852;2022-09-09T10:09:55;18.91;74.58
70839;DHT22;58464;52.298;4.852;2022-09-09T10:36:46;19.67;71.63
70839;DHT22;58464;52.298;4.852;2022-09-09T10:41:51;19.76;71.08
70839;DHT22;58464;52.298;4.852;2022-09-09T10:55:23;20.95;68.26
70839;DHT22;58464;52.298;4.852;2022-09-09T10:57:52;21.41;66.17
70839;DHT22;58464;52.298;4.852;2022-09-09T11:00:21;21.19;66.82
70839;DHT22;58464;52.298;4.852;2022-09-09T11:02:58;20.81;67.44
70839;DHT22;58464;52.298;4.852;2022-09-09T11:05:44;20.41;69.14
70839;DHT22;58464;52.298;4.852;2022-09-09T11:08:20;20.33;69.39
70839;DHT22;58464;52.298;4.852;2022-09-09T11:11:02;20.38;69.68
70839;DHT22;58464;52.298;4.852;2022-09-09T11:16:42;20.03;70.53
70839;DHT22;58464;52.298;4.852;2022-09-09T11:19:36;20.21;70.26
70839;DHT22;58464;52.298;4.852;2022-09-09T11:24:47;19.89;70.49
70839;DHT22;58464;52.298;4.852;2022-09-09T11:27:20;19.67;71.87
70839;DHT22;58464;52.298;4.852;2022-09-09T11:38:26;20.00;71.20
70839;DHT22;58464;52.298;4.852;2022-09-09T11:41:04;19.94;71.37
70839;DHT22;58464;52.298;4.852;2022-09-09T11:46:05;19.89;71.27
70839;DHT22;58464;52.298;4.852;2022-09-09T11:48:35;19.89;71.45
70839;DHT22;58464;52.298;4.852;2022-09-09T11:51:09;20.01;71.39
70839;DHT22;58464;52.298;4.852;2022-09-09T11:53:53;20.04;70.80
70839;DHT22;58464;52.298;4.852;2022-09-09T11:56:28;19.92;71.20
70839;DHT22;58464;52.298;4.852;2022-09-09T11:59:04;19.83;72.79
70839;DHT22;58464;52.298;4.852;2022-09-09T12:01:42;19.70;73.87
70839;DHT22;58464;52.298;4.852;2022-09-09T12:06:48;19.89;73.15
70839;DHT22;58464;52.298;4.852;2022-09-09T12:19:40;20.37;70.95
70839;DHT22;58464;52.298;4.852;2022-09-09T12:27:42;20.59;69.20
70839;DHT22;58464;52.298;4.852;2022-09-09T12:30:12;20.34;70.22
70839;DHT22;58464;52.298;4.852;2022-09-09T12:32:39;20.24;70.87
70839;DHT22;58464;52.298;4.852;2022-09-09T12:35:18;20.24;71.09
70839;DHT22;58464;52.298;4.852;2022-09-09T12:37:52;20.20;71.15
70839;DHT22;58464;52.298;4.852;2022-09-09T12:40:23;20.04;71.63
70839;DHT22;58464;52.298;4.852;2022-09-09T12:42:49;20.09;71.57
70839;DHT22;58464;52.298;4.852;2022-09-09T12:45:22;20.09;71.44
70839;DHT22;58464;52.298;4.852;2022-09-09T12:48:08;19.74;72.34
70839;DHT22;58464;52.298;4.852;2022-09-09T12:50:56;19.56;73.19
70839;DHT22;58464;52.298;4.852;2022-09-09T12:53:30;19.52;74.43
70839;DHT22;58464;52.298;4.852;2022-09-09T12:56:06;19.55;75.27
70839;DHT22;58464;52.298;4.852;2022-09-09T12:58:33;19.55;74.91
70839;DHT22;58464;52.298;4.852;2022-09-09T13:01:02;19.59;74.62
70839;DHT22;58464;52.298;4.852;2022-09-09T13:03:32;19.51;74.46
70839;DHT22;58464;52.298;4.852;2022-09-09T13:06:10;19.63;73.67
70839;DHT22;58464;52.298;4.852;2022-09-09T13:08:38;19.62;73.90
70839;DHT22;58464;52.298;4.852;2022-09-09T13:11:09;19.83;74.30
70839;DHT22;58464;52.298;4.852;2022-09-09T13:13:38;19.87;74.55
70839;DHT22;58464;52.298;4.852;2022-09-09T13:16:06;19.72;75.76
70839;DHT22;58464;52.298;4.852;2022-09-09T13:18:39;19.73;76.35
70839;DHT22;58464;52.298;4.852;2022-09-09T13:21:05;19.89;76.42
70839;DHT22;58464;52.298;4.852;2022-09-09T13:23:32;19.92;76.05
70839;DHT22;58464;52.298;4.852;2022-09-09T13:26:02;20.04;75.75
70839;DHT22;58464;52.298;4.852;2022-09-09T13:28:30;20.20;75.41
70839;DHT22;58464;52.298;4.852;2022-09-09T13:31:20;20.47;74.58
70839;DHT22;58464;52.298;4.852;2022-09-09T13:33:45;20.37;74.05
70839;DHT22;58464;52.298;4.852;2022-09-09T13:36:12;20.18;74.04
70839;DHT22;58464;52.298;4.852;2022-09-09T13:41:36;20.18;75.11
70839;DHT22;58464;52.298;4.852;2022-09-09T13:44:19;20.13;74.30
70839;DHT22;58464;52.298;4.852;2022-09-09T13:46:59;20.24;73.50
70839;DHT22;58464;52.298;4.852;2022-09-09T13:49:28;20.31;73.11
70839;DHT22;58464;52.298;4.852;2022-09-09T13:52:10;20.16;72.16
70839;DHT22;58464;52.298;4.852;2022-09-09T13:54:37;20.33;72.06
70839;DHT22;58464;52.298;4.852;2022-09-09T13:57:04;20.27;71.87
70839;DHT22;58464;52.298;4.852;2022-09-09T13:59:30;20.23;72.53
70839;DHT22;58464;52.298;4.852;2022-09-09T14:01:57;20.37;72.11
70839;DHT22;58464;52.298;4.852;2022-09-09T14:04:22;20.40;72.07
70839;DHT22;58464;52.298;4.852;2022-09-09T14:06:49;20.44;71.89
70839;DHT22;58464;52.298;4.852;2022-09-09T14:09:17;20.41;71.96
70839;DHT22;58464;52.298;4.852;2022-09-09T14:11:44;20.56;71.72
70839;DHT22;58464;52.298;4.852;2022-09-09T14:14:10;20.72;71.10
70839;DHT22;58464;52.298;4.852;2022-09-09T14:16:36;20.85;70.23
70839;DHT22;58464;52.298;4.852;2022-09-09T14:19:03;20.81;70.68
70839;DHT22;58464;52.298;4.852;2022-09-09T14:21:28;21.20;69.11
70839;DHT22;58464;52.298;4.852;2022-09-09T14:23:53;21.55;68.53
70839;DHT22;58464;52.298;4.852;2022-09-09T14:26:20;21.65;67.55
70839;DHT22;58464;52.298;4.852;2022-09-09T14:28:46;21.41;68.15
70839;DHT22;58464;52.298;4.852;2022-09-09T14:31:13;21.26;68.29
70839;DHT22;58464;52.298;4.852;2022-09-09T14:33:38;21.26;68.79
70839;DHT22;58464;52.298;4.852;2022-09-09T14:36:04;21.22;68.92
70839;DHT22;58464;52.298;4.852;2022-09-09T14:38:35;20.85;70.34
70839;DHT22;58464;52.298;4.852;2022-09-09T14:41:09;20.68;70.62
70839;DHT22;58464;52.298;4.852;2022-09-09T14:43:34;20.52;71.23
70839;DHT22;58464;52.298;4.852;2022-09-09T14:46:11;20.31;70.96
70839;DHT22;58464;52.298;4.852;2022-09-09T14:48:37;20.25;71.98
70839;DHT22;58464;52.298;4.852;2022-09-09T14:51:10;20.12;72.23
70839;DHT22;58464;52.298;4.852;2022-09-09T14:53:38;19.82;73.33
70839;DHT22;58464;52.298;4.852;2022-09-09T14:58:30;19.74;72.66
70839;DHT22;58464;52.298;4.852;2022-09-09T15:01:02;19.70;71.84
70839;DHT22;58464;52.298;4.852;2022-09-09T15:03:28;19.72;71.55
70839;DHT22;58464;52.298;4.852;2022-09-09T15:05:53;19.44;71.89
70839;DHT22;58464;52.298;4.852;2022-09-09T15:08:18;19.46;72.34
70839;DHT22;58464;52.298;4.852;2022-09-09T15:10:44;19.46;72.69
70839;DHT22;58464;52.298;4.852;2022-09-09T15:13:10;19.45;72.87
70839;DHT22;58464;52.298;4.852;2022-09-09T15:15:35;19.39;73.61
70839;DHT22;58464;52.298;4.852;2022-09-09T15:18:00;19.28;75.29
70839;DHT22;58464;52.298;4.852;2022-09-09T15:20:26;19.01;77.29
70839;DHT22;58464;52.298;4.852;2022-09-09T15:22:52;18.68;78.71
70839;DHT22;58464;52.298;4.852;2022-09-09T15:25:18;18.46;79.53
70839;DHT22;58464;52.298;4.852;2022-09-09T15:27:43;18.32;80.80
70839;DHT22;58464;52.298;4.852;2022-09-09T15:30:10;18.26;81.07
70839;DHT22;58464;52.298;4.852;2022-09-09T15:32:35;18.24;81.67
70839;DHT22;58464;52.298;4.852;2022-09-09T15:35:01;18.09;81.90
70839;DHT22;58464;52.298;4.852;2022-09-09T15:37:26;18.06;82.97
70839;DHT22;58464;52.298;4.852;2022-09-09T15:39:52;18.02;82.10
70839;DHT22;58464;52.298;4.852;2022-09-09T15:42:17;17.99;82.82
70839;DHT22;58464;52.298;4.852;2022-09-09T15:44:42;17.95;83.55
70839;DHT22;58464;52.298;4.852;2022-09-09T15:47:12;17.98;83.47
70839;DHT22;58464;52.298;4.852;2022-09-09T15:49:39;17.94;84.12
70839;DHT22;58464;52.298;4.852;2022-09-09T15:52:06;17.89;83.78
70839;DHT22;58464;52.298;4.852;2022-09-09T15:54:33;17.82;83.00
70839;DHT22;58464;52.298;4.852;2022-09-09T15:57:02;17.78;84.49
70839;DHT22;58464;52.298;4.852;2022-09-09T15:59:30;17.81;84.93
70839;DHT22;58464;52.298;4.852;2022-09-09T16:02:00;17.81;85.45
70839;DHT22;58464;52.298;4.852;2022-09-09T16:04:27;17.74;85.15
70839;DHT22;58464;52.298;4.852;2022-09-09T16:07:02;17.74;84.48
70839;DHT22;58464;52.298;4.852;2022-09-09T16:09:28;17.79;85.51
70839;DHT22;58464;52.298;4.852;2022-09-09T16:12:01;17.84;85.76
70839;DHT22;58464;52.298;4.852;2022-09-09T16:14:28;17.88;85.62
70839;DHT22;58464;52.298;4.852;2022-09-09T16:16:54;17.92;85.47
70839;DHT22;58464;52.298;4.852;2022-09-09T16:19:19;17.91;84.02
70839;DHT22;58464;52.298;4.852;2022-09-09T16:21:48;17.92;84.01
70839;DHT22;58464;52.298;4.852;2022-09-09T16:24:16;18.02;83.14
70839;DHT22;58464;52.298;4.852;2022-09-09T16:26:45;18.05;83.76
70839;DHT22;58464;52.298;4.852;2022-09-09T16:29:11;18.05;83.59
70839;DHT22;58464;52.298;4.852;2022-09-09T16:31:38;18.06;83.59
70839;DHT22;58464;52.298;4.852;2022-09-09T16:34:03;17.98;83.62
70839;DHT22;58464;52.298;4.852;2022-09-09T16:36:31;18.02;83.60
70839;DHT22;58464;52.298;4.852;2022-09-09T16:39:00;17.98;83.90
70839;DHT22;58464;52.298;4.852;2022-09-09T16:41:28;17.94;83.83
70839;DHT22;58464;52.298;4.852;2022-09-09T16:43:58;17.95;83.58
70839;DHT22;58464;52.298;4.852;2022-09-09T16:46:26;17.85;83.72
70839;DHT22;58464;52.298;4.852;2022-09-09T16:48:53;17.85;84.32
70839;DHT22;58464;52.298;4.852;2022-09-09T16:51:25;17.88;84.62
70839;DHT22;58464;52.298;4.852;2022-09-09T16:53:52;17.94;84.29
70839;DHT22;58464;52.298;4.852;2022-09-09T16:56:20;18.02;84.03
70839;DHT22;58464;52.298;4.852;2022-09-09T16:58:54;18.16;83.75
70839;DHT22;58464;52.298;4.852;2022-09-09T17:01:24;18.22;83.49
70839;DHT22;58464;52.298;4.852;2022-09-09T17:03:54;18.26;82.99
70839;DHT22;58464;52.298;4.852;2022-09-09T17:06:21;18.37;82.69
70839;DHT22;58464;52.298;4.852;2022-09-09T17:08:46;18.30;82.33
70839;DHT22;58464;52.298;4.852;2022-09-09T17:11:18;18.21;83.07
70839;DHT22;58464;52.298;4.852;2022-09-09T17:13:45;18.22;83.72
70839;DHT22;58464;52.298;4.852;2022-09-09T17:16:13;18.12;83.27
70839;DHT22;58464;52.298;4.852;2022-09-09T17:18:39;18.12;83.30
70839;DHT22;58464;52.298;4.852;2022-09-09T17:21:07;18.09;83.38
70839;DHT22;58464;52.298;4.852;2022-09-09T17:23:35;18.02;83.73
70839;DHT22;58464;52.298;4.852;2022-09-09T17:26:04;18.04;83.99
70839;DHT22;58464;52.298;4.852;2022-09-09T17:28:30;17.94;83.95
70839;DHT22;58464;52.298;4.852;2022-09-09T17:30:59;17.86;84.11
70839;DHT22;58464;52.298;4.852;2022-09-09T17:33:30;17.91;84.46
70839;DHT22;58464;52.298;4.852;2022-09-09T17:36:17;17.91;85.00
70839;DHT22;58464;52.298;4.852;2022-09-09T17:38:43;17.89;84.72
70839;DHT22;58464;52.298;4.852;2022-09-09T17:43:38;17.89;84.42
70839;DHT22;58464;52.298;4.852;2022-09-09T17:46:11;17.92;84.55
70839;DHT22;58464;52.298;4.852;2022-09-09T17:48:36;17.85;84.47
70839;DHT22;58464;52.298;4.852;2022-09-09T17:51:04;17.78;85.17
70839;DHT22;58464;52.298;4.852;2022-09-09T17:53:30;17.74;85.66
70839;DHT22;58464;52.298;4.852;2022-09-09T17:56:08;17.71;85.39
70839;DHT22;58464;52.298;4.852;2022-09-09T17:58:35;17.65;85.49
70839;DHT22;58464;52.298;4.852;2022-09-09T18:01:05;17.63;86.07